Chastre-Villeroux-Blanmont, Belgium
Current Conditions -  °F | °C
As of 5:25 PM on Tuesday 21 Oct 2014 (Local Time) from EBBE Reporting Station
Rain Showers Rain Showers  
Wind Chill: 50°   Ceiling: 4300
Heat Index: 50°   Visibility: 5mi
Dew Point: 43°   Wind: 17mph
Humidity: 76%   Direction: 300°WNW
Pressure: 29.68"   Gusts: NA
Location:  50.61°N, 4.64°E
Report Text: EBBE 211525Z 30015KT 8000 -SHRA FEW013 SCT022CB BKN043 10/06 Q1005 WHT BLU TEMPO GRN
Loading
Personal Weather Stations






























Interactive Weather Map
Tropical Storm Tracking
New forecast layout! Learn more

10-Day Weather Forecast

Advertisements
Track Severe Weather on mobile